createdAt,value
2019-05-05T00:01:21.833Z,69.36
2019-05-05T00:03:58.744Z,69.48
2019-05-05T00:06:28.101Z,69.46
2019-05-05T00:08:57.565Z,69.43
2019-05-05T00:11:44.488Z,69.57
2019-05-05T00:14:35.088Z,69.62
2019-05-05T00:17:11.533Z,69.89
2019-05-05T00:19:40.865Z,70.11
2019-05-05T00:22:10.217Z,70.27
2019-05-05T00:24:39.540Z,70.20
2019-05-05T00:27:08.866Z,70.26
2019-05-05T00:29:38.230Z,70.23
2019-05-05T00:32:07.579Z,70.35
2019-05-05T00:34:36.898Z,70.42
2019-05-05T00:37:06.229Z,70.57
2019-05-05T00:39:35.801Z,70.96
2019-05-05T00:42:06.205Z,70.43
2019-05-05T00:44:35.542Z,70.18
2019-05-05T00:47:36.072Z,70.27
2019-05-05T00:50:07.307Z,70.23
2019-05-05T00:52:36.628Z,70.35
2019-05-05T00:55:06.796Z,70.41
2019-05-05T00:57:36.179Z,70.47
2019-05-05T01:00:10.390Z,70.55
2019-05-05T01:02:44.903Z,70.67
2019-05-05T01:05:39.615Z,70.64
2019-05-05T01:08:14.444Z,70.55
2019-05-05T01:10:44.351Z,70.47
2019-05-05T01:13:15.209Z,70.52
2019-05-05T01:15:44.939Z,70.22
2019-05-05T01:18:15.221Z,69.62
2019-05-05T01:20:44.909Z,69.94
2019-05-05T01:23:15.009Z,70.70
2019-05-05T01:25:46.128Z,70.56
2019-05-05T01:28:15.596Z,69.60
2019-05-05T01:30:47.341Z,69.70
2019-05-05T01:33:40.336Z,69.16
2019-05-05T01:36:09.961Z,69.12
2019-05-05T01:38:55.232Z,69.00
2019-05-05T01:41:31.827Z,68.92
2019-05-05T01:44:01.235Z,68.34
2019-05-05T01:46:30.626Z,68.61
2019-05-05T01:48:59.970Z,68.93
2019-05-05T01:51:29.455Z,68.70
2019-05-05T01:53:58.792Z,68.83
2019-05-05T01:56:28.946Z,68.72
2019-05-05T01:58:58.592Z,68.68
2019-05-05T02:01:27.907Z,68.96
2019-05-05T02:03:57.255Z,68.92
2019-05-05T02:06:26.586Z,68.89
2019-05-05T02:08:56.001Z,69.01
2019-05-05T02:11:25.392Z,69.41
2019-05-05T02:13:54.845Z,69.52
2019-05-05T02:16:25.333Z,69.70
2019-05-05T02:18:54.895Z,69.62
2019-05-05T02:21:24.875Z,69.85
2019-05-05T02:23:54.847Z,70.06
2019-05-05T02:26:24.609Z,69.97
2019-05-05T02:29:14.256Z,69.65
2019-05-05T02:32:01.740Z,69.40
2019-05-05T02:34:35.835Z,69.08
2019-05-05T02:37:05.585Z,69.21
2019-05-05T02:39:38.104Z,69.59
2019-05-05T02:42:06.117Z,70.18
2019-05-05T02:44:36.017Z,70.60
2019-05-05T02:47:15.434Z,71.17
2019-05-05T02:49:46.298Z,71.23
2019-05-05T02:52:17.831Z,71.15
2019-05-05T02:54:47.562Z,72.23
2019-05-05T02:57:17.911Z,72.44
2019-05-05T03:00:06.496Z,73.46
2019-05-05T03:02:36.689Z,74.25
2019-05-05T03:05:06.443Z,76.38
2019-05-05T03:07:36.692Z,77.43
2019-05-05T03:10:07.200Z,77.25
2019-05-05T03:12:38.791Z,76.34
2019-05-05T03:15:08.658Z,75.79
2019-05-05T03:17:37.999Z,76.07
2019-05-05T03:20:08.225Z,77.08
2019-05-05T03:22:37.774Z,76.62
2019-05-05T03:25:07.131Z,75.46
2019-05-05T03:27:36.587Z,75.70
2019-05-05T03:30:06.503Z,75.36
2019-05-05T03:32:36.362Z,74.90
2019-05-05T03:35:05.953Z,74.35
2019-05-05T03:37:35.495Z,74.25
2019-05-05T03:40:11.893Z,74.19
2019-05-05T03:42:48.316Z,74.13
2019-05-05T03:45:37.390Z,73.90
2019-05-05T03:48:06.929Z,74.00
2019-05-05T03:50:36.729Z,74.28
2019-05-05T03:53:06.727Z,75.04
2019-05-05T03:55:36.447Z,74.10
2019-05-05T03:58:05.995Z,74.17
2019-05-05T04:01:16.659Z,74.06
2019-05-05T04:03:45.984Z,74.00
2019-05-05T04:06:16.988Z,74.14
2019-05-05T04:08:46.340Z,73.90
2019-05-05T04:11:15.669Z,73.99
2019-05-05T04:13:45.316Z,73.92
2019-05-05T04:16:23.628Z,73.71
2019-05-05T04:18:56.829Z,73.69
2019-05-05T04:21:33.207Z,73.64
2019-05-05T04:23:57.214Z,73.28
2019-05-05T04:26:26.627Z,73.38
2019-05-05T04:28:55.991Z,73.54
2019-05-05T04:31:25.342Z,73.54
2019-05-05T04:33:55.058Z,73.63
2019-05-05T04:36:24.386Z,73.48
2019-05-05T04:38:54.572Z,73.52
2019-05-05T04:41:24.606Z,73.34
2019-05-05T04:43:54.725Z,73.32
2019-05-05T04:46:24.609Z,73.04
2019-05-05T04:48:59.449Z,73.05
2019-05-05T04:51:44.809Z,73.43
2019-05-05T04:54:24.521Z,73.35
2019-05-05T04:56:54.114Z,73.16
2019-05-05T04:59:23.638Z,72.82
2019-05-05T05:01:55.801Z,72.34
2019-05-05T05:04:53.624Z,71.88
2019-05-05T05:07:24.231Z,71.53
2019-05-05T05:09:54.091Z,70.66
2019-05-05T05:12:23.826Z,69.71
2019-05-05T05:14:54.693Z,69.43
2019-05-05T05:17:30.607Z,69.66
2019-05-05T05:19:59.932Z,69.35
2019-05-05T05:22:29.672Z,69.98
2019-05-05T05:24:59.016Z,69.65
2019-05-05T05:27:28.353Z,69.63
2019-05-05T05:29:58.090Z,69.69
2019-05-05T05:32:27.441Z,69.90
2019-05-05T05:34:56.766Z,69.76
2019-05-05T05:37:26.111Z,69.47
2019-05-05T05:40:04.973Z,69.63
2019-05-05T05:42:34.315Z,69.91
2019-05-05T05:45:34.855Z,69.79
2019-05-05T05:48:18.363Z,69.66
2019-05-05T05:50:59.774Z,69.54
2019-05-05T05:53:29.123Z,68.75
2019-05-05T05:55:58.516Z,69.29
2019-05-05T05:58:27.874Z,69.74
2019-05-05T06:00:57.976Z,69.73
2019-05-05T06:03:27.301Z,69.76
2019-05-05T06:05:56.658Z,70.15
2019-05-05T06:08:26.010Z,70.69
2019-05-05T06:10:55.371Z,71.10
2019-05-05T06:13:24.732Z,71.38
2019-05-05T06:15:54.149Z,71.81
2019-05-05T06:18:24.374Z,72.87
2019-05-05T06:20:54.242Z,74.23
2019-05-05T06:23:24.166Z,75.26
2019-05-05T06:25:55.152Z,75.11
2019-05-05T06:28:24.722Z,75.41
2019-05-05T06:30:54.628Z,74.93
2019-05-05T06:33:24.321Z,74.94
2019-05-05T06:35:53.785Z,75.74
2019-05-05T06:38:24.130Z,75.50
2019-05-05T06:41:11.108Z,75.05
2019-05-05T06:44:14.718Z,75.02
2019-05-05T06:47:01.734Z,76.00
2019-05-05T06:49:31.407Z,76.40
2019-05-05T06:52:00.778Z,76.17
2019-05-05T06:54:30.121Z,75.85
2019-05-05T06:56:59.553Z,75.81
2019-05-05T06:59:28.900Z,75.33
2019-05-05T07:01:58.226Z,74.73
2019-05-05T07:04:27.568Z,74.95
2019-05-05T07:06:57.397Z,74.66
2019-05-05T07:09:26.739Z,73.79
2019-05-05T07:11:56.091Z,73.22
2019-05-05T07:14:25.463Z,71.41
2019-05-05T07:16:54.832Z,69.80
2019-05-05T07:19:24.166Z,69.22
2019-05-05T07:21:53.935Z,68.00
2019-05-05T07:24:23.988Z,67.41
2019-05-05T07:26:54.095Z,66.11
2019-05-05T07:29:23.979Z,66.15
2019-05-05T07:31:54.538Z,65.67
2019-05-05T07:34:25.350Z,66.33
2019-05-05T07:36:54.963Z,67.52
2019-05-05T07:39:24.333Z,67.91
2019-05-05T07:41:54.290Z,67.61
2019-05-05T07:44:29.380Z,66.80
2019-05-05T07:46:54.867Z,67.27
2019-05-05T07:49:24.461Z,64.05
2019-05-05T07:51:54.687Z,62.84
2019-05-05T07:54:24.232Z,62.16
2019-05-05T07:56:53.981Z,61.22
2019-05-05T07:59:23.942Z,60.08
2019-05-05T08:01:54.774Z,60.56
2019-05-05T08:04:24.424Z,58.32
2019-05-05T08:06:54.023Z,57.94
2019-05-05T08:09:24.961Z,59.09
2019-05-05T08:11:54.447Z,59.37
2019-05-05T08:14:24.545Z,61.52
2019-05-05T08:17:11.759Z,62.31
2019-05-05T08:19:49.172Z,59.44
2019-05-05T08:22:18.923Z,56.38
2019-05-05T08:24:58.527Z,56.38
2019-05-05T08:27:56.178Z,54.48
2019-05-05T08:30:59.880Z,53.28
2019-05-05T08:33:29.217Z,51.39
2019-05-05T08:35:58.577Z,49.79
2019-05-05T08:38:27.964Z,48.64
2019-05-05T08:40:57.373Z,51.57
2019-05-05T08:43:26.733Z,51.47
2019-05-05T08:45:56.101Z,53.44
2019-05-05T08:48:25.430Z,54.13
2019-05-05T08:50:54.782Z,54.67
2019-05-05T08:53:24.381Z,53.03
2019-05-05T08:55:54.661Z,53.74
2019-05-05T08:58:24.102Z,54.74
2019-05-05T09:00:53.733Z,55.38
2019-05-05T09:03:24.325Z,56.19
2019-05-05T09:05:54.295Z,56.58
2019-05-05T09:08:24.179Z,56.57
2019-05-05T09:10:55.172Z,58.84
2019-05-05T09:13:24.929Z,59.02
2019-05-05T09:15:54.550Z,59.07
2019-05-05T09:18:24.575Z,59.15
2019-05-05T09:20:54.116Z,59.59
2019-05-05T09:23:24.128Z,60.31
2019-05-05T09:26:18.241Z,60.64
2019-05-05T09:29:06.517Z,59.70
2019-05-05T09:31:35.899Z,58.33
2019-05-05T09:34:05.234Z,57.04
2019-05-05T09:36:34.880Z,56.61
2019-05-05T09:39:05.980Z,54.46
2019-05-05T09:41:35.337Z,53.31
2019-05-05T09:44:04.767Z,53.02
2019-05-05T09:46:34.176Z,53.39
2019-05-05T09:49:04.679Z,53.07
2019-05-05T09:51:34.789Z,51.46
2019-05-05T09:54:13.939Z,52.02
2019-05-05T09:56:36.169Z,53.36
2019-05-05T09:59:06.099Z,54.37
2019-05-05T10:01:35.573Z,54.74
2019-05-05T10:04:09.134Z,55.29
2019-05-05T10:06:39.458Z,56.21
2019-05-05T10:09:10.653Z,56.60
2019-05-05T10:11:40.364Z,57.41
2019-05-05T10:14:10.146Z,57.06
2019-05-05T10:16:41.562Z,54.19
2019-05-05T10:19:10.970Z,49.96
2019-05-05T10:21:40.374Z,49.58
2019-05-05T10:24:27.893Z,51.81
2019-05-05T10:26:48.582Z,53.12
2019-05-05T10:29:17.939Z,53.91
2019-05-05T10:31:48.092Z,53.79
2019-05-05T10:34:18.563Z,54.50
2019-05-05T10:36:47.917Z,56.16
2019-05-05T10:39:36.203Z,55.96
2019-05-05T10:42:05.749Z,55.96
2019-05-05T10:44:35.317Z,55.55
2019-05-05T10:47:04.831Z,54.41
2019-05-05T10:49:34.325Z,53.08
2019-05-05T10:52:04.231Z,52.56
2019-05-05T10:54:43.264Z,49.39
2019-05-05T10:57:04.723Z,49.23
2019-05-05T10:59:34.478Z,51.67
2019-05-05T11:02:04.979Z,52.73
2019-05-05T11:04:34.931Z,53.25
2019-05-05T11:07:04.430Z,53.90
2019-05-05T11:09:34.580Z,54.27
2019-05-05T11:12:03.981Z,54.43
2019-05-05T11:14:33.780Z,55.43
2019-05-05T11:17:04.120Z,54.85
2019-05-05T11:19:33.982Z,56.15
2019-05-05T11:22:03.410Z,56.20
2019-05-05T11:24:34.589Z,56.79
2019-05-05T11:27:04.428Z,56.54
2019-05-05T11:29:35.538Z,56.39
2019-05-05T11:32:07.637Z,56.14
2019-05-05T11:34:36.979Z,55.92
2019-05-05T11:37:12.147Z,56.50
2019-05-05T11:39:41.539Z,56.09
2019-05-05T11:42:10.931Z,55.56
2019-05-05T11:44:40.272Z,54.48
2019-05-05T11:47:09.670Z,52.92
2019-05-05T11:49:39.011Z,53.56
2019-05-05T11:52:08.373Z,54.15
2019-05-05T11:54:38.832Z,53.79
2019-05-05T11:57:08.128Z,54.26
2019-05-05T11:59:37.484Z,54.26
2019-05-05T12:02:06.814Z,53.94
2019-05-05T12:04:36.199Z,53.49
2019-05-05T12:07:05.919Z,53.70
2019-05-05T12:09:49.906Z,53.35
2019-05-05T12:12:19.378Z,53.74
2019-05-05T12:14:49.197Z,53.31
2019-05-05T12:17:34.562Z,53.50
2019-05-05T12:20:05.927Z,53.47
2019-05-05T12:22:35.275Z,52.25
2019-05-05T12:25:06.725Z,52.60
2019-05-05T12:27:45.604Z,53.37
2019-05-05T12:30:15.328Z,52.95
2019-05-05T12:32:44.667Z,51.98
2019-05-05T12:35:14.813Z,51.24
2019-05-05T12:37:44.624Z,50.37
2019-05-05T12:40:14.450Z,50.74
2019-05-05T12:42:44.072Z,50.99
2019-05-05T12:45:17.447Z,51.16
2019-05-05T12:48:04.663Z,50.99
2019-05-05T12:50:34.009Z,50.62
2019-05-05T12:53:04.083Z,50.19
2019-05-05T12:55:41.483Z,50.18
2019-05-05T12:58:04.756Z,50.56
2019-05-05T13:00:35.509Z,51.44
2019-05-05T13:03:04.959Z,52.15
2019-05-05T13:05:34.303Z,52.58
2019-05-05T13:08:03.951Z,52.83
2019-05-05T13:10:33.760Z,52.25
2019-05-05T13:13:03.845Z,51.89
2019-05-05T13:15:33.921Z,51.77
2019-05-05T13:18:03.666Z,51.61
2019-05-05T13:20:50.145Z,50.93
2019-05-05T13:23:47.613Z,50.97
2019-05-05T13:26:23.669Z,52.19
2019-05-05T13:28:54.641Z,53.57
2019-05-05T13:31:24.019Z,54.35
2019-05-05T13:33:54.849Z,55.00
2019-05-05T13:36:24.369Z,55.04
2019-05-05T13:38:54.535Z,54.49
2019-05-05T13:41:25.017Z,53.79
2019-05-05T13:43:56.143Z,54.69
2019-05-05T13:46:27.493Z,55.37
2019-05-05T13:49:15.772Z,57.02
2019-05-05T13:51:45.354Z,59.52
2019-05-05T13:54:14.795Z,61.36
2019-05-05T13:56:44.834Z,61.33
2019-05-05T13:59:14.357Z,61.31
2019-05-05T14:01:44.808Z,62.09
2019-05-05T14:04:24.805Z,62.15
2019-05-05T14:06:55.195Z,62.42
2019-05-05T14:09:40.554Z,62.43
2019-05-05T14:12:16.750Z,62.63
2019-05-05T14:14:50.363Z,62.00
2019-05-05T14:17:20.830Z,61.67
2019-05-05T14:20:03.998Z,62.14
2019-05-05T14:22:24.266Z,63.59
2019-05-05T14:25:08.589Z,63.91
2019-05-05T14:27:37.975Z,63.88
2019-05-05T14:30:23.974Z,64.56
2019-05-05T14:32:54.425Z,64.98
2019-05-05T14:35:36.199Z,64.89
2019-05-05T14:38:08.869Z,65.02
2019-05-05T14:40:38.382Z,65.51
2019-05-05T14:43:08.186Z,66.62
2019-05-05T14:45:37.533Z,67.60
2019-05-05T14:48:07.248Z,68.02
2019-05-05T14:50:36.613Z,67.88
2019-05-05T14:53:06.415Z,68.68
2019-05-05T14:55:35.855Z,69.59
2019-05-05T14:58:05.283Z,69.78
2019-05-05T15:00:34.789Z,69.92
2019-05-05T15:03:04.169Z,70.63
2019-05-05T15:05:48.069Z,70.96
2019-05-05T15:08:37.820Z,70.59
2019-05-05T15:11:17.270Z,70.56
2019-05-05T15:13:47.551Z,69.96
2019-05-05T15:16:16.937Z,70.33
2019-05-05T15:18:46.363Z,70.71
2019-05-05T15:21:15.759Z,70.99
2019-05-05T15:23:45.116Z,71.53
2019-05-05T15:26:14.611Z,72.51
2019-05-05T15:28:57.735Z,73.72
2019-05-05T15:31:17.995Z,74.68
2019-05-05T15:33:47.623Z,75.66
2019-05-05T15:36:17.186Z,76.61
2019-05-05T15:38:46.810Z,76.23
2019-05-05T15:41:16.144Z,76.06
2019-05-05T15:43:45.759Z,76.02
2019-05-05T15:46:15.354Z,76.23
2019-05-05T15:48:46.924Z,76.61
2019-05-05T15:51:19.217Z,77.38
2019-05-05T15:53:48.651Z,77.67
2019-05-05T15:56:19.091Z,77.14
2019-05-05T15:58:48.472Z,76.91
2019-05-05T16:01:18.368Z,77.41
2019-05-05T16:03:54.323Z,76.86
2019-05-05T16:06:23.958Z,76.64
2019-05-05T16:08:56.658Z,75.49
2019-05-05T16:11:26.987Z,75.80
2019-05-05T16:13:56.489Z,74.56
2019-05-05T16:16:42.123Z,73.77
2019-05-05T16:19:24.737Z,73.63
2019-05-05T16:22:03.755Z,73.57
2019-05-05T16:24:36.471Z,73.61
2019-05-05T16:27:18.612Z,73.51
2019-05-05T16:29:37.210Z,73.51
2019-05-05T16:32:17.804Z,73.49
2019-05-05T16:34:40.725Z,72.97
2019-05-05T16:37:10.094Z,72.74
2019-05-05T16:39:39.446Z,72.77
2019-05-05T16:42:08.787Z,72.72
2019-05-05T16:44:38.142Z,72.94
2019-05-05T16:47:07.717Z,72.81
2019-05-05T16:49:37.125Z,72.64
2019-05-05T16:52:14.581Z,72.32
2019-05-05T16:55:04.362Z,72.57
2019-05-05T16:57:36.631Z,73.26
2019-05-05T17:00:05.887Z,74.94
2019-05-05T17:02:39.810Z,74.86
2019-05-05T17:05:14.801Z,74.70
2019-05-05T17:08:00.078Z,75.45
2019-05-05T17:10:34.249Z,75.75
2019-05-05T17:13:28.719Z,74.00
2019-05-05T17:16:34.992Z,73.16
2019-05-05T17:19:13.930Z,73.05
2019-05-05T17:22:01.244Z,72.63
2019-05-05T17:24:30.635Z,72.49
2019-05-05T17:27:00.022Z,72.64
2019-05-05T17:29:29.819Z,73.02
2019-05-05T17:31:59.641Z,73.30
2019-05-05T17:34:30.853Z,74.10
2019-05-05T17:37:00.217Z,75.65
2019-05-05T17:39:34.421Z,77.05
2019-05-05T17:42:23.991Z,77.10
2019-05-05T17:45:11.043Z,77.38
2019-05-05T17:47:47.291Z,77.90
2019-05-05T17:50:21.533Z,79.43
2019-05-05T17:53:15.989Z,79.27
2019-05-05T17:55:45.427Z,79.07
2019-05-05T17:58:14.965Z,79.92
2019-05-05T18:00:54.446Z,81.18
2019-05-05T18:03:23.869Z,83.82
2019-05-05T18:06:03.231Z,83.35
2019-05-05T18:08:41.131Z,83.08
2019-05-05T18:11:17.028Z,85.63
2019-05-05T18:13:50.503Z,87.83
2019-05-05T18:16:20.966Z,89.52
2019-05-05T18:18:50.827Z,91.88
2019-05-05T18:21:24.739Z,91.91
2019-05-05T18:23:54.565Z,91.71
2019-05-05T18:26:24.393Z,91.51
2019-05-05T18:28:54.258Z,91.65
2019-05-05T18:31:24.245Z,93.04
2019-05-05T18:33:54.308Z,93.39
2019-05-05T18:36:23.853Z,93.71
2019-05-05T18:38:53.862Z,93.91
2019-05-05T18:41:38.021Z,94.74
2019-05-05T18:44:24.177Z,94.80
2019-05-05T18:47:18.476Z,95.06
2019-05-05T18:49:49.068Z,95.74
2019-05-05T18:52:20.291Z,96.16
2019-05-05T18:54:49.822Z,96.07
2019-05-05T18:57:19.163Z,95.97
2019-05-05T18:59:48.596Z,96.33
2019-05-05T19:02:48.932Z,96.83
2019-05-05T19:05:31.392Z,96.94
